createdAt,value
2022-12-15T00:00:22.518Z,-4.96
2022-12-15T00:01:21.453Z,-4.98
2022-12-15T00:02:21.589Z,-4.96
2022-12-15T00:03:21.487Z,-5.02
2022-12-15T00:04:21.399Z,-5.02
2022-12-15T00:05:21.390Z,-5.03
2022-12-15T00:06:21.456Z,-5.02
2022-12-15T00:07:21.362Z,-5.03
2022-12-15T00:08:21.336Z,-5.05
2022-12-15T00:09:24.026Z,-5.03
2022-12-15T00:10:22.323Z,-5.05
2022-12-15T00:11:21.360Z,-5.05
2022-12-15T00:12:21.293Z,-5.08
2022-12-15T00:13:21.293Z,-5.08
2022-12-15T00:14:21.276Z,-5.08
2022-12-15T00:15:21.262Z,-5.06
2022-12-15T00:16:21.346Z,-5.09
2022-12-15T00:17:21.252Z,-5.14
2022-12-15T00:18:21.238Z,-5.14
2022-12-15T00:19:21.230Z,-5.13
2022-12-15T00:20:21.220Z,-5.14
2022-12-15T00:21:21.242Z,-5.14
2022-12-15T00:22:21.184Z,-5.17
2022-12-15T00:23:21.184Z,-5.18
2022-12-15T00:24:21.169Z,-5.17
2022-12-15T00:25:21.169Z,-5.21
2022-12-15T00:26:21.194Z,-5.22
2022-12-15T00:27:21.190Z,-5.22
2022-12-15T00:28:21.113Z,-5.25
2022-12-15T00:29:21.107Z,-5.29
2022-12-15T00:30:21.096Z,-5.28
2022-12-15T00:31:21.184Z,-5.33
2022-12-15T00:32:21.086Z,-5.33
2022-12-15T00:33:21.073Z,-5.35
2022-12-15T00:34:21.880Z,-5.36
2022-12-15T00:35:21.065Z,-5.42
2022-12-15T00:36:21.094Z,-5.43
2022-12-15T00:37:21.031Z,-5.45
2022-12-15T00:38:21.045Z,-5.46
2022-12-15T00:39:21.011Z,-5.47
2022-12-15T00:40:21.001Z,-5.54
2022-12-15T00:41:21.019Z,-5.58
2022-12-15T00:42:20.979Z,-5.63
2022-12-15T00:43:21.009Z,-5.63
2022-12-15T00:44:21.046Z,-5.66
2022-12-15T00:45:20.947Z,-5.64
2022-12-15T00:46:20.986Z,-5.66
2022-12-15T00:47:20.928Z,-5.67
2022-12-15T00:48:20.905Z,-5.64
2022-12-15T00:49:20.893Z,-5.68
2022-12-15T00:50:20.885Z,-5.68
2022-12-15T00:51:20.915Z,-5.66
2022-12-15T00:52:20.860Z,-5.68
2022-12-15T00:53:20.857Z,-5.72
2022-12-15T00:54:20.855Z,-5.72
2022-12-15T00:55:20.848Z,-5.74
2022-12-15T00:56:20.857Z,-5.75
2022-12-15T00:57:20.825Z,-5.72
2022-12-15T00:58:20.803Z,-5.74
2022-12-15T00:59:20.792Z,-5.72
2022-12-15T01:00:20.777Z,-5.74
2022-12-15T01:01:20.986Z,-5.75
2022-12-15T01:02:20.971Z,-5.81
2022-12-15T01:03:20.843Z,-5.81
2022-12-15T01:04:20.782Z,-5.84
2022-12-15T01:05:20.729Z,-5.85
2022-12-15T01:06:20.750Z,-5.85
2022-12-15T01:07:20.719Z,-5.89
2022-12-15T01:08:20.693Z,-5.90
2022-12-15T01:09:20.694Z,-5.93
2022-12-15T01:10:20.672Z,-5.95
2022-12-15T01:11:20.713Z,-6.00
2022-12-15T01:12:20.660Z,-6.05
2022-12-15T01:13:20.647Z,-6.10
2022-12-15T01:14:20.637Z,-6.15
2022-12-15T01:15:20.640Z,-6.20
2022-12-15T01:16:20.704Z,-6.18
2022-12-15T01:17:20.617Z,-6.21
2022-12-15T01:18:20.586Z,-6.23
2022-12-15T01:19:21.278Z,-6.31
2022-12-15T01:20:20.580Z,-6.35
2022-12-15T01:21:24.322Z,-6.39
2022-12-15T01:22:20.544Z,-6.42
2022-12-15T01:23:20.567Z,-6.46
2022-12-15T01:24:20.529Z,-6.46
2022-12-15T01:25:20.516Z,-6.47
2022-12-15T01:26:20.593Z,-6.47
2022-12-15T01:27:20.501Z,-6.47
2022-12-15T01:28:20.470Z,-6.49
2022-12-15T01:29:20.480Z,-6.47
2022-12-15T01:30:20.456Z,-6.47
2022-12-15T01:31:20.514Z,-6.47
2022-12-15T01:32:20.479Z,-6.47
2022-12-15T01:33:20.431Z,-6.46
2022-12-15T01:34:20.426Z,-6.47
2022-12-15T01:35:20.405Z,-6.47
2022-12-15T01:36:20.392Z,-6.49
2022-12-15T01:37:20.422Z,-6.49
2022-12-15T01:38:20.366Z,-6.50
2022-12-15T01:39:20.362Z,-6.53
2022-12-15T01:40:20.356Z,-6.52
2022-12-15T01:41:20.347Z,-6.50
2022-12-15T01:42:20.359Z,-6.49
2022-12-15T01:43:20.326Z,-6.49
2022-12-15T01:44:20.294Z,-6.50
2022-12-15T01:45:20.297Z,-6.49
2022-12-15T01:46:20.355Z,-6.49
2022-12-15T01:47:20.314Z,-6.47
2022-12-15T01:48:20.255Z,-6.46
2022-12-15T01:49:20.250Z,-6.44
2022-12-15T01:50:20.242Z,-6.47
2022-12-15T01:51:20.230Z,-6.44
2022-12-15T01:52:20.264Z,-6.42
2022-12-15T01:53:20.208Z,-6.44
2022-12-15T01:54:20.189Z,-6.42
2022-12-15T01:55:20.195Z,-6.44
2022-12-15T01:56:20.166Z,-6.42
2022-12-15T01:57:20.207Z,-6.42
2022-12-15T01:58:20.145Z,-6.46
2022-12-15T01:59:20.146Z,-6.49
2022-12-15T02:00:20.126Z,-6.49
2022-12-15T02:01:20.195Z,-6.49
2022-12-15T02:02:20.222Z,-6.52
2022-12-15T02:03:20.192Z,-6.56
2022-12-15T02:04:20.094Z,-6.63
2022-12-15T02:05:20.080Z,-6.69
2022-12-15T02:06:20.064Z,-6.71
2022-12-15T02:07:20.098Z,-6.72
2022-12-15T02:08:20.073Z,-6.75
2022-12-15T02:09:20.038Z,-6.74
2022-12-15T02:10:20.029Z,-6.74
2022-12-15T02:11:20.021Z,-6.76
2022-12-15T02:12:20.038Z,-6.79
2022-12-15T02:13:19.998Z,-6.83
2022-12-15T02:14:19.975Z,-6.84
2022-12-15T02:15:19.966Z,-6.86
2022-12-15T02:16:20.017Z,-6.87
2022-12-15T02:17:19.982Z,-6.86
2022-12-15T02:18:19.929Z,-6.81
2022-12-15T02:19:19.930Z,-6.78
2022-12-15T02:20:19.910Z,-6.76
2022-12-15T02:21:19.898Z,-6.75
2022-12-15T02:22:19.925Z,-6.72
2022-12-15T02:23:19.877Z,-6.72
2022-12-15T02:24:19.885Z,-6.69
2022-12-15T02:25:19.859Z,-6.69
2022-12-15T02:26:19.829Z,-6.66
2022-12-15T02:27:19.868Z,-6.71
2022-12-15T02:28:19.806Z,-6.75
2022-12-15T02:29:19.822Z,-6.74
2022-12-15T02:30:19.814Z,-6.69
2022-12-15T02:31:19.850Z,-6.69
2022-12-15T02:32:19.814Z,-6.68
2022-12-15T02:33:19.767Z,-6.63
2022-12-15T02:34:19.753Z,-6.60
2022-12-15T02:35:19.769Z,-6.60
2022-12-15T02:36:19.736Z,-6.54
2022-12-15T02:37:19.774Z,-6.56
2022-12-15T02:38:19.713Z,-6.54
2022-12-15T02:39:19.698Z,-6.54
2022-12-15T02:40:19.691Z,-6.58
2022-12-15T02:41:19.677Z,-6.58
2022-12-15T02:42:19.714Z,-6.58
2022-12-15T02:43:19.646Z,-6.61
2022-12-15T02:44:19.656Z,-6.68
2022-12-15T02:45:19.654Z,-6.69
2022-12-15T02:46:19.703Z,-6.66
2022-12-15T02:47:19.623Z,-6.66
2022-12-15T02:48:19.626Z,-6.68
2022-12-15T02:49:19.600Z,-6.66
2022-12-15T02:50:19.596Z,-6.65
2022-12-15T02:51:19.579Z,-6.63
2022-12-15T02:52:19.553Z,-6.66
2022-12-15T02:53:19.609Z,-6.68
2022-12-15T02:54:19.528Z,-6.65
2022-12-15T02:55:19.549Z,-6.68
2022-12-15T02:56:19.508Z,-6.71
2022-12-15T02:57:19.495Z,-6.68
2022-12-15T02:58:19.514Z,-6.71
2022-12-15T02:59:19.472Z,-6.69
2022-12-15T03:00:19.454Z,-6.69
2022-12-15T03:01:19.602Z,-6.66
2022-12-15T03:02:19.512Z,-6.65
2022-12-15T03:03:19.500Z,-6.65
2022-12-15T03:04:19.433Z,-6.61
2022-12-15T03:05:19.421Z,-6.61
2022-12-15T03:06:19.421Z,-6.58
2022-12-15T03:07:19.402Z,-6.56
2022-12-15T03:08:19.417Z,-6.56
2022-12-15T03:09:19.377Z,-6.56
2022-12-15T03:10:19.368Z,-6.54
2022-12-15T03:11:19.354Z,-6.60
2022-12-15T03:12:19.359Z,-6.58
2022-12-15T03:13:19.382Z,-6.58
2022-12-15T03:14:19.326Z,-6.61
2022-12-15T03:15:19.315Z,-6.60
2022-12-15T03:16:19.366Z,-6.56
2022-12-15T03:17:19.294Z,-6.54
2022-12-15T03:18:19.318Z,-6.54
2022-12-15T03:19:19.316Z,-6.54
2022-12-15T03:20:19.252Z,-6.53
2022-12-15T03:21:19.256Z,-6.54
2022-12-15T03:22:19.243Z,-6.53
2022-12-15T03:23:19.253Z,-6.52
2022-12-15T03:24:19.213Z,-6.50
2022-12-15T03:25:19.195Z,-6.50
2022-12-15T03:26:19.187Z,-6.52
2022-12-15T03:27:19.174Z,-6.50
2022-12-15T03:28:19.192Z,-6.50
2022-12-15T03:29:19.151Z,-6.52
2022-12-15T03:30:19.146Z,-6.49
2022-12-15T03:31:19.146Z,-6.52
2022-12-15T03:32:19.207Z,-6.52
2022-12-15T03:33:19.098Z,-6.50
2022-12-15T03:34:19.145Z,-6.49
2022-12-15T03:35:19.103Z,-6.47
2022-12-15T03:36:19.061Z,-6.47
2022-12-15T03:37:19.078Z,-6.47
2022-12-15T03:38:19.083Z,-6.47
2022-12-15T03:39:19.081Z,-6.49
2022-12-15T03:40:19.026Z,-6.49
2022-12-15T03:41:19.035Z,-6.49
2022-12-15T03:42:19.014Z,-6.46
2022-12-15T03:43:19.012Z,-6.42
2022-12-15T03:44:19.019Z,-6.42
2022-12-15T03:45:18.975Z,-6.41
2022-12-15T03:46:19.050Z,-6.38
2022-12-15T03:47:18.957Z,-6.35
2022-12-15T03:48:18.954Z,-6.35
2022-12-15T03:49:18.986Z,-6.32
2022-12-15T03:50:18.939Z,-6.32
2022-12-15T03:51:18.926Z,-6.31
2022-12-15T03:52:18.911Z,-6.32
2022-12-15T03:53:18.900Z,-6.34
2022-12-15T03:54:18.931Z,-6.36
2022-12-15T03:55:18.879Z,-6.39
2022-12-15T03:56:18.846Z,-6.41
2022-12-15T03:57:18.857Z,-6.41
2022-12-15T03:58:18.830Z,-6.42
2022-12-15T03:59:18.857Z,-6.42
2022-12-15T04:00:18.816Z,-6.44
2022-12-15T04:01:18.932Z,-6.42
2022-12-15T04:02:18.936Z,-6.42
2022-12-15T04:03:18.810Z,-6.41
2022-12-15T04:04:18.822Z,-6.39
2022-12-15T04:05:18.762Z,-6.42
2022-12-15T04:06:18.755Z,-6.41
2022-12-15T04:07:18.732Z,-6.39
2022-12-15T04:08:18.722Z,-6.38
2022-12-15T04:09:18.720Z,-6.34
2022-12-15T04:10:18.747Z,-6.31
2022-12-15T04:11:18.706Z,-6.29
2022-12-15T04:12:18.699Z,-6.29
2022-12-15T04:13:18.669Z,-6.26
2022-12-15T04:14:18.650Z,-6.24
2022-12-15T04:15:18.789Z,-6.23
2022-12-15T04:16:20.412Z,-6.23
2022-12-15T04:17:18.703Z,-6.23
2022-12-15T04:18:18.617Z,-6.20
2022-12-15T04:19:18.627Z,-6.20
2022-12-15T04:20:18.637Z,-6.18
2022-12-15T04:21:18.594Z,-6.15
2022-12-15T04:22:18.579Z,-6.17
2022-12-15T04:23:18.603Z,-6.17
2022-12-15T04:24:18.566Z,-6.15
2022-12-15T04:25:18.581Z,-6.14
2022-12-15T04:26:18.537Z,-6.10
2022-12-15T04:27:18.517Z,-6.13
2022-12-15T04:28:18.527Z,-6.13
2022-12-15T04:29:18.496Z,-6.11
2022-12-15T04:30:18.518Z,-6.13
2022-12-15T04:31:18.562Z,-6.10
2022-12-15T04:32:18.446Z,-6.08
2022-12-15T04:33:18.444Z,-6.07
2022-12-15T04:34:18.425Z,-6.07
2022-12-15T04:35:18.481Z,-6.05
2022-12-15T04:36:18.398Z,-6.03
2022-12-15T04:37:18.417Z,-6.00
2022-12-15T04:38:18.398Z,-6.00
2022-12-15T04:39:18.393Z,-5.97
2022-12-15T04:40:18.428Z,-5.97
2022-12-15T04:41:18.375Z,-5.96
2022-12-15T04:42:18.361Z,-5.95
2022-12-15T04:43:18.352Z,-5.93
2022-12-15T04:44:18.339Z,-5.92
2022-12-15T04:45:20.892Z,-5.89
2022-12-15T04:46:18.346Z,-5.85
2022-12-15T04:47:18.297Z,-5.84
2022-12-15T04:48:18.296Z,-5.85
2022-12-15T04:49:18.279Z,-5.84
2022-12-15T04:50:18.306Z,-5.82
2022-12-15T04:51:18.252Z,-5.79
2022-12-15T04:52:18.262Z,-5.78
2022-12-15T04:53:18.226Z,-5.82
2022-12-15T04:54:18.242Z,-5.79
2022-12-15T04:55:18.254Z,-5.78
2022-12-15T04:56:18.898Z,-5.76
2022-12-15T04:57:18.194Z,-5.78
2022-12-15T04:58:18.190Z,-5.75
2022-12-15T04:59:18.178Z,-5.72
2022-12-15T05:00:18.238Z,-5.74
2022-12-15T05:01:18.264Z,-5.72
2022-12-15T05:02:18.228Z,-5.67
2022-12-15T05:03:18.759Z,-5.67
2022-12-15T05:04:18.184Z,-5.67
2022-12-15T05:05:18.126Z,-5.67
2022-12-15T05:06:18.076Z,-5.66
2022-12-15T05:07:18.070Z,-5.66
2022-12-15T05:08:18.094Z,-5.63
2022-12-15T05:09:18.069Z,-5.61
2022-12-15T05:10:18.098Z,-5.60
2022-12-15T05:11:18.049Z,-5.58
2022-12-15T05:12:18.045Z,-5.57
2022-12-15T05:13:18.026Z,-5.54
2022-12-15T05:14:18.018Z,-5.54
2022-12-15T05:15:18.037Z,-5.56
2022-12-15T05:16:18.072Z,-5.54
2022-12-15T05:17:18.028Z,-5.53
2022-12-15T05:18:17.986Z,-5.51
2022-12-15T05:19:17.949Z,-5.49
2022-12-15T05:20:17.990Z,-5.47
2022-12-15T05:21:17.949Z,-5.46
2022-12-15T05:22:17.936Z,-5.46
2022-12-15T05:23:17.917Z,-5.42
2022-12-15T05:24:17.917Z,-5.42
2022-12-15T05:25:17.946Z,-5.40
2022-12-15T05:26:17.905Z,-5.40
2022-12-15T05:27:17.890Z,-5.40
2022-12-15T05:28:17.879Z,-5.40
2022-12-15T05:29:17.858Z,-5.40
2022-12-15T05:30:17.889Z,-5.42
2022-12-15T05:31:17.887Z,-5.39
2022-12-15T05:32:17.835Z,-5.38
2022-12-15T05:33:17.813Z,-5.35
2022-12-15T05:34:17.823Z,-5.31
2022-12-15T05:35:17.847Z,-5.28
2022-12-15T05:36:17.773Z,-5.25
2022-12-15T05:37:17.755Z,-5.24
2022-12-15T05:38:17.746Z,-5.21
2022-12-15T05:39:17.758Z,-5.18
2022-12-15T05:40:17.795Z,-5.18
2022-12-15T05:41:17.735Z,-5.13
2022-12-15T05:42:17.719Z,-5.10
2022-12-15T05:43:20.460Z,-5.09
2022-12-15T05:44:21.134Z,-5.05
2022-12-15T05:45:17.726Z,-5.02
2022-12-15T05:46:17.741Z,-5.00
2022-12-15T05:47:17.689Z,-5.00
2022-12-15T05:48:17.655Z,-4.98
2022-12-15T05:49:17.636Z,-4.96
2022-12-15T05:50:17.687Z,-4.92
2022-12-15T05:51:17.622Z,-4.92
2022-12-15T05:52:17.622Z,-4.89
2022-12-15T05:53:17.596Z,-4.87
2022-12-15T05:54:17.598Z,-4.85
2022-12-15T05:55:17.630Z,-4.82
2022-12-15T05:56:17.586Z,-4.84
2022-12-15T05:57:17.627Z,-4.81
2022-12-15T05:58:17.554Z,-4.79
2022-12-15T05:59:17.543Z,-4.78
2022-12-15T06:00:17.564Z,-4.78
2022-12-15T06:01:17.676Z,-4.77
2022-12-15T06:02:17.565Z,-4.75
2022-12-15T06:03:17.543Z,-4.73
2022-12-15T06:04:17.535Z,-4.71
2022-12-15T06:05:17.504Z,-4.70
2022-12-15T06:06:17.453Z,-4.69
2022-12-15T06:07:17.431Z,-4.69
2022-12-15T06:08:17.412Z,-4.69
2022-12-15T06:09:17.398Z,-4.69
2022-12-15T06:10:17.454Z,-4.69
2022-12-15T06:11:17.395Z,-4.66
2022-12-15T06:12:17.386Z,-4.64
2022-12-15T06:13:17.375Z,-4.61
2022-12-15T06:14:17.366Z,-4.57
2022-12-15T06:15:17.350Z,-4.59
2022-12-15T06:16:17.499Z,-4.57
2022-12-15T06:17:17.334Z,-4.55
2022-12-15T06:18:17.317Z,-4.52
2022-12-15T06:19:17.314Z,-4.49
2022-12-15T06:20:17.278Z,-4.48
2022-12-15T06:21:17.317Z,-4.45
2022-12-15T06:22:17.270Z,-4.42
2022-12-15T06:23:17.242Z,-4.39
2022-12-15T06:24:17.272Z,-4.35
2022-12-15T06:25:17.232Z,-4.35
2022-12-15T06:26:17.268Z,-4.32
2022-12-15T06:27:17.223Z,-4.30
2022-12-15T06:28:17.204Z,-4.27
2022-12-15T06:29:17.200Z,-4.27
2022-12-15T06:30:17.183Z,-4.24
2022-12-15T06:31:17.266Z,-4.24
2022-12-15T06:32:17.164Z,-4.24
2022-12-15T06:33:17.155Z,-4.25
2022-12-15T06:34:17.151Z,-4.25
2022-12-15T06:35:17.125Z,-4.27
2022-12-15T06:36:17.140Z,-4.28
2022-12-15T06:37:17.086Z,-4.28
2022-12-15T06:38:17.094Z,-4.28
2022-12-15T06:39:17.066Z,-4.27
2022-12-15T06:40:17.053Z,-4.27
2022-12-15T06:41:17.112Z,-4.27
2022-12-15T06:42:17.061Z,-4.27
2022-12-15T06:43:17.026Z,-4.27
2022-12-15T06:44:17.041Z,-4.31
2022-12-15T06:45:17.018Z,-4.31
2022-12-15T06:46:17.093Z,-4.32
2022-12-15T06:47:16.993Z,-4.31
2022-12-15T06:48:16.974Z,-4.31
2022-12-15T06:49:16.982Z,-4.32
2022-12-15T06:50:16.967Z,-4.32
2022-12-15T06:51:17.610Z,-4.38
2022-12-15T06:52:16.935Z,-4.39
2022-12-15T06:53:16.925Z,-4.41
2022-12-15T06:54:16.931Z,-4.42
2022-12-15T06:55:16.903Z,-4.43
2022-12-15T06:56:16.934Z,-4.46
2022-12-15T06:57:16.876Z,-4.45
2022-12-15T06:58:16.876Z,-4.43
2022-12-15T06:59:16.860Z,-4.43
2022-12-15T07:00:16.837Z,-4.48
2022-12-15T07:01:16.898Z,-4.49
2022-12-15T07:02:17.108Z,-4.57
2022-12-15T07:03:17.029Z,-4.57
2022-12-15T07:04:16.925Z,-4.53
2022-12-15T07:05:16.802Z,-4.53
2022-12-15T07:06:16.826Z,-4.53
2022-12-15T07:07:16.775Z,-4.60
2022-12-15T07:08:16.752Z,-4.61
2022-12-15T07:09:16.748Z,-4.67
2022-12-15T07:10:16.734Z,-4.71
2022-12-15T07:11:16.736Z,-4.71
2022-12-15T07:12:16.692Z,-4.73
2022-12-15T07:13:16.710Z,-4.71
2022-12-15T07:14:16.679Z,-4.73
2022-12-15T07:15:16.676Z,-4.73
2022-12-15T07:16:16.740Z,-4.73
2022-12-15T07:17:16.682Z,-4.78
2022-12-15T07:18:16.632Z,-4.77
2022-12-15T07:19:16.630Z,-4.79
2022-12-15T07:20:16.617Z,-4.79
2022-12-15T07:21:16.648Z,-4.82
2022-12-15T07:22:16.593Z,-4.85
2022-12-15T07:23:16.589Z,-4.87
2022-12-15T07:24:16.580Z,-4.89
2022-12-15T07:25:16.557Z,-4.89
2022-12-15T07:26:16.581Z,-4.89
2022-12-15T07:27:16.534Z,-4.88
2022-12-15T07:28:19.002Z,-4.92
2022-12-15T07:29:22.872Z,-4.95
2022-12-15T07:30:17.494Z,-4.96
2022-12-15T07:31:16.606Z,-4.98
2022-12-15T07:32:16.488Z,-5.00
2022-12-15T07:33:16.478Z,-4.99
2022-12-15T07:34:16.456Z,-4.96
2022-12-15T07:35:16.448Z,-5.00
2022-12-15T07:36:16.486Z,-4.99
2022-12-15T07:37:16.435Z,-4.98
2022-12-15T07:38:16.427Z,-4.92
2022-12-15T07:39:16.415Z,-4.91
2022-12-15T07:40:16.400Z,-4.85
2022-12-15T07:41:16.394Z,-4.84
2022-12-15T07:42:16.350Z,-4.95
2022-12-15T07:43:16.343Z,-4.95
2022-12-15T07:44:16.366Z,-4.91
2022-12-15T07:45:16.341Z,-4.89
2022-12-15T07:46:16.448Z,-4.88
2022-12-15T07:47:16.320Z,-4.89
2022-12-15T07:48:16.307Z,-4.89
2022-12-15T07:49:16.311Z,-4.87
2022-12-15T07:50:16.285Z,-4.85
2022-12-15T07:51:19.731Z,-4.84
2022-12-15T07:52:16.255Z,-4.89
2022-12-15T07:53:16.253Z,-4.89
2022-12-15T07:54:16.224Z,-4.95
2022-12-15T07:55:16.237Z,-4.98
2022-12-15T07:56:16.236Z,-4.99
2022-12-15T07:57:16.202Z,-5.02
2022-12-15T07:58:16.195Z,-5.03
2022-12-15T07:59:16.170Z,-5.03
2022-12-15T08:00:16.183Z,-5.02
2022-12-15T08:01:16.291Z,-4.95
2022-12-15T08:02:16.457Z,-4.92
2022-12-15T08:03:16.313Z,-4.99
2022-12-15T08:04:16.128Z,-4.98
2022-12-15T08:05:16.131Z,-4.98
2022-12-15T08:06:16.144Z,-4.91
2022-12-15T08:07:16.098Z,-4.85
2022-12-15T08:08:16.073Z,-4.85
2022-12-15T08:09:16.074Z,-4.96
2022-12-15T08:10:16.055Z,-4.98
2022-12-15T08:11:16.085Z,-4.98
2022-12-15T08:12:16.017Z,-4.98
2022-12-15T08:13:38.181Z,-4.96
2022-12-15T08:14:18.416Z,-4.96
2022-12-15T08:15:15.998Z,-4.87
2022-12-15T08:16:16.088Z,-4.82
2022-12-15T08:17:15.972Z,-4.88
2022-12-15T08:18:15.969Z,-4.92
2022-12-15T08:19:15.957Z,-5.05
2022-12-15T08:20:15.956Z,-4.99
2022-12-15T08:21:15.978Z,-4.96
2022-12-15T08:22:15.919Z,-4.91
2022-12-15T08:23:15.922Z,-4.91
2022-12-15T08:24:15.902Z,-4.89
2022-12-15T08:25:15.899Z,-4.96
2022-12-15T08:26:15.938Z,-4.89
2022-12-15T08:27:15.870Z,-4.96
2022-12-15T08:28:15.865Z,-4.92
2022-12-15T08:30:16.837Z,-4.87
2022-12-15T08:31:15.936Z,-4.88
2022-12-15T08:32:15.888Z,-4.88
2022-12-15T08:33:15.790Z,-4.81
2022-12-15T08:34:15.805Z,-4.71
2022-12-15T08:35:47.015Z,-4.73
2022-12-15T08:36:16.801Z,-4.71
2022-12-15T08:37:15.759Z,-4.73
2022-12-15T08:38:15.748Z,-4.78
2022-12-15T08:39:15.737Z,-4.78
2022-12-15T08:40:15.714Z,-4.75
2022-12-15T08:41:15.747Z,-4.71
2022-12-15T08:42:15.693Z,-4.75
2022-12-15T08:43:15.668Z,-4.71
2022-12-15T08:44:15.682Z,-4.63
2022-12-15T08:45:15.656Z,-4.61
2022-12-15T08:46:15.747Z,-4.61
2022-12-15T08:47:15.662Z,-4.66
2022-12-15T08:48:15.643Z,-4.63
2022-12-15T08:49:21.439Z,-4.69
2022-12-15T08:50:16.619Z,-4.69
2022-12-15T08:51:15.649Z,-4.66
2022-12-15T08:52:15.586Z,-4.69
2022-12-15T08:53:30.780Z,-4.69
2022-12-15T08:54:16.558Z,-4.64
2022-12-15T08:55:20.807Z,-4.59
2022-12-15T08:56:16.577Z,-4.52
2022-12-15T08:57:15.539Z,-4.46
2022-12-15T08:58:15.523Z,-4.46
2022-12-15T08:59:15.528Z,-4.50
2022-12-15T09:00:15.516Z,-4.50
2022-12-15T09:01:20.752Z,-4.53
2022-12-15T09:02:16.584Z,-4.49
2022-12-15T09:03:15.465Z,-4.42
2022-12-15T09:04:15.540Z,-4.38
2022-12-15T09:05:15.436Z,-4.27
2022-12-15T09:06:15.443Z,-4.27
2022-12-15T09:07:15.425Z,-4.22
2022-12-15T09:08:15.402Z,-4.14
2022-12-15T09:09:15.406Z,-4.09
2022-12-15T09:10:15.377Z,-4.12
2022-12-15T09:11:15.411Z,-4.10
2022-12-15T09:12:15.351Z,-4.16
2022-12-15T09:13:15.356Z,-4.34
2022-12-15T09:14:15.338Z,-4.31
2022-12-15T09:15:15.321Z,-4.38
2022-12-15T09:16:15.352Z,-4.31
2022-12-15T09:17:15.325Z,-4.13
2022-12-15T09:18:15.301Z,-4.24
2022-12-15T09:19:15.286Z,-4.20
2022-12-15T09:20:17.805Z,-4.13
2022-12-15T09:21:15.306Z,-4.14
2022-12-15T09:22:15.244Z,-4.14
2022-12-15T09:23:15.227Z,-4.12
2022-12-15T09:24:23.257Z,-4.10
2022-12-15T09:25:16.220Z,-4.10
2022-12-15T09:26:15.251Z,-4.04
2022-12-15T09:27:15.197Z,-3.82
2022-12-15T09:28:15.198Z,-3.74
2022-12-15T09:29:15.197Z,-3.61
2022-12-15T09:30:15.155Z,-3.56
2022-12-15T09:31:15.242Z,-3.51
2022-12-15T09:32:15.130Z,-3.46
2022-12-15T09:33:15.116Z,-3.28
2022-12-15T09:34:15.112Z,-3.13
2022-12-15T09:35:15.097Z,-2.92
2022-12-15T09:36:15.093Z,-2.92
2022-12-15T09:37:15.121Z,-3.02
2022-12-15T09:38:15.071Z,-3.16
2022-12-15T09:39:15.067Z,-3.28
2022-12-15T09:40:15.055Z,-3.51
2022-12-15T09:41:15.122Z,-3.66
2022-12-15T09:42:15.067Z,-3.63
2022-12-15T09:43:33.946Z,-3.66
2022-12-15T09:44:16.021Z,-3.74
2022-12-15T09:45:15.009Z,-3.70
2022-12-15T09:46:15.023Z,-3.72
2022-12-15T09:47:15.021Z,-3.78
2022-12-15T09:48:14.936Z,-3.70
2022-12-15T09:49:14.953Z,-3.70
2022-12-15T09:50:14.941Z,-3.55
2022-12-15T09:51:14.967Z,-3.27
2022-12-15T09:52:14.957Z,-3.15
2022-12-15T09:53:45.693Z,-3.01
2022-12-15T09:54:15.868Z,-2.84
2022-12-15T09:55:14.936Z,-2.69
2022-12-15T09:56:14.856Z,-2.34
2022-12-15T09:57:14.885Z,-2.00
2022-12-15T09:58:14.844Z,-1.84
2022-12-15T09:59:14.835Z,-1.82
2022-12-15T10:00:14.792Z,-1.69
2022-12-15T10:01:14.803Z,-1.77
2022-12-15T10:02:14.933Z,-1.56
2022-12-15T10:03:14.916Z,-1.29
2022-12-15T10:04:14.832Z,-1.14
2022-12-15T10:05:14.781Z,-1.12
2022-12-15T10:07:15.773Z,-1.40
2022-12-15T10:08:14.698Z,-1.72
2022-12-15T10:09:14.724Z,-1.89
2022-12-15T10:10:14.708Z,-2.04
2022-12-15T10:11:14.729Z,-2.42
2022-12-15T10:12:14.701Z,-2.66
2022-12-15T10:13:14.759Z,-2.70
2022-12-15T10:14:14.640Z,-2.53
2022-12-15T10:15:14.649Z,-2.59
2022-12-15T10:16:14.729Z,-2.52
2022-12-15T10:17:14.662Z,-2.70
2022-12-15T10:18:14.583Z,-2.81
2022-12-15T10:19:14.589Z,-2.76
2022-12-15T10:20:14.560Z,-2.92
2022-12-15T10:21:14.577Z,-2.88
2022-12-15T10:22:14.554Z,-2.73
2022-12-15T10:23:14.651Z,-2.56
2022-12-15T10:24:14.555Z,-2.59
2022-12-15T10:25:14.540Z,-2.53
2022-12-15T10:26:14.524Z,-2.42
2022-12-15T10:27:14.514Z,-2.59
2022-12-15T10:28:14.529Z,-2.58
2022-12-15T10:29:14.479Z,-2.50
2022-12-15T10:30:14.522Z,-2.52
2022-12-15T10:31:14.526Z,-2.52
2022-12-15T10:32:14.443Z,-2.47
2022-12-15T10:33:14.468Z,-2.55
2022-12-15T10:34:14.463Z,-2.56
2022-12-15T10:35:14.410Z,-2.60
2022-12-15T10:36:14.406Z,-2.58
2022-12-15T10:37:14.402Z,-2.47
2022-12-15T10:38:14.410Z,-2.41
2022-12-15T10:39:16.155Z,-2.34
2022-12-15T10:40:14.338Z,-2.04
2022-12-15T10:41:14.349Z,-1.83
2022-12-15T10:42:14.322Z,-1.58
2022-12-15T10:43:14.366Z,-1.25
2022-12-15T10:44:14.302Z,-1.07
2022-12-15T10:45:14.297Z,-1.01
2022-12-15T10:46:14.435Z,-1.11
2022-12-15T10:47:14.268Z,-1.19
2022-12-15T10:48:14.281Z,-0.99
2022-12-15T10:49:14.232Z,-0.74
2022-12-15T10:50:15.569Z,-0.38
2022-12-15T10:51:14.219Z,-0.03
2022-12-15T10:52:14.226Z,0.22
2022-12-15T10:53:14.227Z,0.12
2022-12-15T10:54:14.172Z,0.52
2022-12-15T10:55:14.165Z,0.49
2022-12-15T10:56:14.170Z,0.88
2022-12-15T10:57:14.160Z,1.04
2022-12-15T10:58:14.223Z,1.12
2022-12-15T10:59:14.153Z,1.49
2022-12-15T11:00:14.124Z,1.38
2022-12-15T11:01:14.239Z,1.76
2022-12-15T11:02:19.508Z,2.22
2022-12-15T11:03:15.486Z,2.00
2022-12-15T11:04:14.163Z,2.04
2022-12-15T11:05:14.069Z,1.70
2022-12-15T11:06:14.063Z,1.44
2022-12-15T11:07:14.039Z,1.38
2022-12-15T11:08:14.076Z,1.38
2022-12-15T11:09:14.027Z,2.02
2022-12-15T11:10:13.997Z,2.33
2022-12-15T11:11:14.032Z,2.68
2022-12-15T11:12:13.979Z,2.50
2022-12-15T11:13:14.015Z,2.04
2022-12-15T11:14:13.953Z,2.00
2022-12-15T11:15:13.961Z,2.51
2022-12-15T11:16:13.934Z,2.65
2022-12-15T11:17:13.931Z,2.29
2022-12-15T11:18:13.941Z,1.92
2022-12-15T11:19:13.899Z,1.87
2022-12-15T11:20:13.887Z,1.99
2022-12-15T11:21:13.885Z,1.73
2022-12-15T11:22:13.855Z,2.13
2022-12-15T11:23:13.918Z,2.53
2022-12-15T11:24:13.861Z,3.19
2022-12-15T11:25:13.867Z,3.55
2022-12-15T11:26:13.817Z,3.32
2022-12-15T11:27:13.849Z,2.51
2022-12-15T11:28:13.847Z,2.20
2022-12-15T11:29:13.829Z,1.95
2022-12-15T11:30:13.773Z,1.58
2022-12-15T11:31:13.789Z,2.25
2022-12-15T11:32:13.749Z,2.93
2022-12-15T11:33:13.739Z,3.47
2022-12-15T11:34:13.754Z,3.77
2022-12-15T11:35:13.740Z,3.59
2022-12-15T11:36:13.721Z,3.32
2022-12-15T11:37:13.716Z,3.36
2022-12-15T11:38:13.694Z,3.23
2022-12-15T11:39:13.796Z,3.08
2022-12-15T11:40:13.667Z,2.62
2022-12-15T11:41:13.672Z,2.26
2022-12-15T11:42:13.650Z,1.91
2022-12-15T11:43:13.645Z,1.32
2022-12-15T11:44:13.651Z,1.58
2022-12-15T11:45:13.632Z,1.99
2022-12-15T11:46:13.604Z,2.08
2022-12-15T11:47:13.573Z,2.39
2022-12-15T11:48:13.574Z,2.35
2022-12-15T11:49:13.614Z,2.46
2022-12-15T11:50:13.565Z,2.57
2022-12-15T11:51:13.537Z,2.68
2022-12-15T11:52:13.515Z,2.82
2022-12-15T11:53:13.513Z,3.16
2022-12-15T11:54:13.544Z,3.03
2022-12-15T11:55:13.498Z,2.83
2022-12-15T11:56:13.468Z,2.74
2022-12-15T11:57:13.485Z,3.01
2022-12-15T11:58:13.462Z,3.08
2022-12-15T11:59:13.488Z,3.31
2022-12-15T12:00:13.455Z,3.53
2022-12-15T12:01:13.416Z,3.50
2022-12-15T12:02:13.478Z,3.50
2022-12-15T12:03:13.429Z,3.05
2022-12-15T12:04:13.427Z,3.05
2022-12-15T12:05:13.377Z,3.19
2022-12-15T12:06:13.356Z,2.68
2022-12-15T12:07:13.362Z,2.31
2022-12-15T12:08:13.331Z,2.43
2022-12-15T12:09:13.341Z,2.46
2022-12-15T12:10:13.355Z,2.83
2022-12-15T12:11:13.373Z,2.83
2022-12-15T12:12:13.301Z,2.75
2022-12-15T12:13:13.301Z,2.29
2022-12-15T12:14:13.273Z,2.39
2022-12-15T12:15:13.329Z,2.75
2022-12-15T12:16:13.270Z,2.74
2022-12-15T12:17:13.235Z,2.68
2022-12-15T12:18:13.238Z,2.85
2022-12-15T12:19:13.265Z,2.65
2022-12-15T12:20:13.241Z,2.53
2022-12-15T12:21:13.192Z,2.97
2022-12-15T12:22:13.171Z,3.41
2022-12-15T12:23:13.168Z,3.29
2022-12-15T12:24:13.155Z,2.98
2022-12-15T12:25:13.175Z,2.75
2022-12-15T12:26:13.184Z,2.89
2022-12-15T12:27:13.149Z,3.37
2022-12-15T12:28:13.115Z,3.28
2022-12-15T12:29:13.121Z,3.41
2022-12-15T12:30:13.126Z,3.28
2022-12-15T12:31:13.070Z,3.03
2022-12-15T12:32:13.067Z,3.16
2022-12-15T12:33:13.066Z,3.00
2022-12-15T12:34:13.045Z,2.85
2022-12-15T12:35:30.367Z,2.65
2022-12-15T12:36:14.033Z,2.38
2022-12-15T12:37:13.021Z,2.47
2022-12-15T12:38:13.013Z,2.65
2022-12-15T12:39:13.003Z,2.83
2022-12-15T12:40:13.020Z,2.75
2022-12-15T12:41:12.978Z,2.22
2022-12-15T12:42:12.949Z,2.25
2022-12-15T12:43:14.007Z,2.57
2022-12-15T12:44:12.926Z,2.64
2022-12-15T12:45:12.941Z,2.53
2022-12-15T12:46:12.942Z,2.62
2022-12-15T12:47:12.911Z,2.65
2022-12-15T12:48:12.884Z,2.54
2022-12-15T12:49:12.878Z,2.50
2022-12-15T12:50:12.859Z,2.44
2022-12-15T12:51:12.911Z,2.15
2022-12-15T12:52:12.831Z,2.17
2022-12-15T12:53:12.821Z,1.80
2022-12-15T12:54:12.818Z,1.63
2022-12-15T12:55:14.468Z,1.48
2022-12-15T12:56:12.814Z,1.49
2022-12-15T12:57:12.800Z,1.48
2022-12-15T12:58:12.772Z,1.48